Baton Rouge, LA (70821)

1:00 AM CST on December 19, 2014 (GMT -0600)
Capital Heights | Change Station
CLOSE
Current Station
Personal Weather Station
Location: Baton Rouge, LA
Elevation: 82 ft
Nearby Weather Stations

Elev 82 ft 30.44 °N, 91.13 °W | Updated 3 seconds ago

Overcast
Overcast
57.0 °F
Feels Like 57.0 °F
N
0.9
Wind Variable Wind from NE
Gusts 1.0 mph

Today
High -- | Low -- °F
--% Chance of Precip.
Yesterday
High -- | Low -- °F
Precip. -- in
6:56 AM 5:07 PM
Waning Crescent, 9% visible
Pressure 30.09 in
Visibility 7.0 miles
Clouds Mostly Cloudy 500 ft
Mostly Cloudy 1400 ft
Overcast 1900 ft
Dew Point 55 °F
Humidity 93%
Rainfall 0.00 in
Snow Depth Not available.
UV 0 out of 12
Pollen 4.20 out of 12
Air Quality Not available.
Flu Activity Not available.
METAR KBTR 190653Z 06006KT 7SM BKN005 BKN014 OVC019 13/12 A3010 RMK AO2 SLP190 T01280117

More Conditions Fewer Conditions

Pressure 30.09 in
Visibility 7.0 miles
Clouds Mostly Cloudy 500 ft
Mostly Cloudy 1400 ft
Overcast 1900 ft
Dew Point 55 °F
Humidity 93%
Rainfall 0.00 in
Snow Depth Not available.
UV 0 out of 12
Pollen 4.20 out of 12
Air Quality Not available.
Flu Activity Not available.
METAR KBTR 190653Z 06006KT 7SM BKN005 BKN014 OVC019 13/12 A3010 RMK AO2 SLP190 T01280117

More Conditions Fewer Conditions

10-Day Weather Forecast

Almanac

Astronomy

Dec. 19, 2014 Rise Set
Actual Time
Civil Twilight
Nautical Twilight
Astronomical Twilight
Moon
Length of Visible Light
Length of Day
Tomorrow will be .
, % of the Moon is Illuminated

Today's Extremes

State Highs State Lows

Community

WunderPhotos

Upload Photos

1,778,952 photos uploaded!

WunderBlogs® & News

Nearby

Air Quality

  Air Quality AQ Index Pollutant
Not available.

Snow Depth

Station Depth Elevation

Earthquake Activity

City Distance Mag. Time & Date
Minimum magnitude displayed is 2.5.

Coastal Water Temperatures

Place Temperature

Nearby Weather Stations